Skip Navigation Links Skip Navigation Links

Current Weather

Webster Nolf, St Inigoes, Md.

For information only: do not use for flight planning or navigation.
Latest weather
Observation time Sunday, August 1, 2021 6:53 AM EDT
Local time Sunday, August 1, 2021 7:33 AM EDT
Flight conditions Instrument Meteorological Conditions
Winds
Wind direction South-Southwest (210°)
Wind speed 5 mph
Visibility 1.75 mi.
Present weather rain
Sky condition
Ceiling 7,500 ft. overcast
Cloud layer few clouds 5,000 ft.
Cloud layer overcast 7,500 ft.
Temperature 73°F
Dewpoint 67°F
Altimeter 29.90 in.Hg
Precipitation
Precipitation last hour 0.20 in.
Derived measurements
Relative humidity 81%
Density altitude 1259 ft.
Sea-level pressure 29.90 in.Hg
Remarks
Fully automated report.
Automated weather observing station with precipitation discriminator.
METAR KNUI 011053Z AUTO 21004KT 1 3/4SM RA FEW050 OVC075 23/19 A2990 RMK AO2 SLP126 P0020 T02280194

Settings

Location code

InnerDrive.Weather 4.0.6770.0 Release CLR 4.0.30319.42000
Copyright ©2018 Inner Drive Technology. All rights reserved. Portions Copyright ©1986-2018 David Braverman.

Find weather

Site navigation


Skip Navigation Links

Place info

Page info

PayPal - The safer, easier way to pay online!

Return home.

Copyright ©2021 Inner Drive Technology. Purveyors of fine, hand-crafted computer software. Page printed 2021-08-01T11:33:52 UTC.